sensor_id;sensor_type;location;lat;lon;timestamp;P1;durP1;ratioP1;P2;durP2;ratioP2
79454;SDS011;68900;52.134;5.420;2023-06-10T05:06:19;10.38;;;4.07;;
79454;SDS011;68900;52.134;5.420;2023-06-10T05:08:57;11.52;;;4.32;;
79454;SDS011;68900;52.134;5.420;2023-06-10T05:11:47;9.77;;;3.95;;
79454;SDS011;68900;52.134;5.420;2023-06-10T05:14:57;8.10;;;3.58;;
79454;SDS011;68900;52.134;5.420;2023-06-10T05:17:32;10.68;;;4.28;;
79454;SDS011;68900;52.134;5.420;2023-06-10T05:27:40;7.65;;;3.35;;
79454;SDS011;68900;52.134;5.420;2023-06-10T05:30:14;8.77;;;3.53;;
79454;SDS011;68900;52.134;5.420;2023-06-10T05:32:41;10.52;;;4.03;;
79454;SDS011;68900;52.134;5.420;2023-06-10T05:35:23;10.43;;;3.53;;
79454;SDS011;68900;52.134;5.420;2023-06-10T05:38:10;7.40;;;3.83;;
79454;SDS011;68900;52.134;5.420;2023-06-10T05:40:52;8.50;;;3.35;;
79454;SDS011;68900;52.134;5.420;2023-06-10T05:43:32;7.50;;;3.50;;
79454;SDS011;68900;52.134;5.420;2023-06-10T05:46:13;9.15;;;4.07;;
79454;SDS011;68900;52.134;5.420;2023-06-10T06:03:55;8.02;;;3.75;;
79454;SDS011;68900;52.134;5.420;2023-06-10T06:06:23;13.57;;;4.18;;
79454;SDS011;68900;52.134;5.420;2023-06-10T06:13:23;10.80;;;4.15;;
79454;SDS011;68900;52.134;5.420;2023-06-10T06:16:35;8.98;;;4.18;;
79454;SDS011;68900;52.134;5.420;2023-06-10T06:31:07;10.65;;;3.83;;
79454;SDS011;68900;52.134;5.420;2023-06-10T06:33:57;8.13;;;4.05;;
79454;SDS011;68900;52.134;5.420;2023-06-10T06:36:36;11.55;;;4.20;;
79454;SDS011;68900;52.134;5.420;2023-06-10T06:39:17;9.10;;;4.00;;
79454;SDS011;68900;52.134;5.420;2023-06-10T06:41:55;9.23;;;3.45;;
79454;SDS011;68900;52.134;5.420;2023-06-10T06:47:38;8.98;;;4.00;;
79454;SDS011;68900;52.134;5.420;2023-06-10T06:50:12;11.57;;;4.10;;
79454;SDS011;68900;52.134;5.420;2023-06-10T06:52:56;10.07;;;4.13;;
79454;SDS011;68900;52.134;5.420;2023-06-10T06:55:31;6.90;;;3.58;;
79454;SDS011;68900;52.134;5.420;2023-06-10T06:58:20;8.85;;;3.42;;
79454;SDS011;68900;52.134;5.420;2023-06-10T07:00:45;9.57;;;3.67;;
79454;SDS011;68900;52.134;5.420;2023-06-10T07:03:12;9.40;;;4.38;;
79454;SDS011;68900;52.134;5.420;2023-06-10T14:34:17;7.32;;;3.03;;
79454;SDS011;68900;52.134;5.420;2023-06-10T14:57:10;6.18;;;3.22;;
79454;SDS011;68900;52.134;5.420;2023-06-10T15:35:30;8.45;;;3.10;;
79454;SDS011;68900;52.134;5.420;2023-06-10T19:25:50;5.88;;;2.78;;
79454;SDS011;68900;52.134;5.420;2023-06-10T19:31:49;7.80;;;2.72;;
79454;SDS011;68900;52.134;5.420;2023-06-10T19:34:20;7.70;;;3.13;;
79454;SDS011;68900;52.134;5.420;2023-06-10T19:36:57;7.43;;;2.97;;
79454;SDS011;68900;52.134;5.420;2023-06-10T19:50:15;6.07;;;2.60;;
79454;SDS011;68900;52.134;5.420;2023-06-10T20:01:16;5.80;;;2.60;;
79454;SDS011;68900;52.134;5.420;2023-06-10T20:03:47;7.15;;;2.65;;
79454;SDS011;68900;52.134;5.420;2023-06-10T20:06:14;8.45;;;2.72;;
79454;SDS011;68900;52.134;5.420;2023-06-10T20:08:51;5.93;;;2.80;;
79454;SDS011;68900;52.134;5.420;2023-06-10T20:11:18;6.18;;;2.60;;
79454;SDS011;68900;52.134;5.420;2023-06-10T20:14:06;7.93;;;2.83;;
79454;SDS011;68900;52.134;5.420;2023-06-10T20:16:47;6.03;;;3.03;;
79454;SDS011;68900;52.134;5.420;2023-06-10T20:19:17;8.25;;;3.10;;
79454;SDS011;68900;52.134;5.420;2023-06-10T20:21:52;6.15;;;3.10;;
79454;SDS011;68900;52.134;5.420;2023-06-10T20:24:25;8.45;;;3.00;;
79454;SDS011;68900;52.134;5.420;2023-06-10T20:29:51;7.28;;;2.92;;
79454;SDS011;68900;52.134;5.420;2023-06-10T20:35:52;5.38;;;2.85;;
79454;SDS011;68900;52.134;5.420;2023-06-10T20:38:35;4.72;;;2.58;;
79454;SDS011;68900;52.134;5.420;2023-06-10T20:41:23;6.63;;;2.70;;
79454;SDS011;68900;52.134;5.420;2023-06-10T20:43:52;6.22;;;2.90;;
79454;SDS011;68900;52.134;5.420;2023-06-10T20:53:49;5.13;;;2.70;;
79454;SDS011;68900;52.134;5.420;2023-06-10T20:59:44;6.93;;;2.75;;
79454;SDS011;68900;52.134;5.420;2023-06-10T21:02:19;8.45;;;3.00;;
79454;SDS011;68900;52.134;5.420;2023-06-10T21:04:47;9.82;;;3.67;;
79454;SDS011;68900;52.134;5.420;2023-06-10T21:07:19;6.20;;;3.00;;
79454;SDS011;68900;52.134;5.420;2023-06-10T21:24:20;6.43;;;2.70;;
79454;SDS011;68900;52.134;5.420;2023-06-10T21:26:52;6.80;;;2.80;;
79454;SDS011;68900;52.134;5.420;2023-06-10T21:29:34;6.55;;;2.80;;
79454;SDS011;68900;52.134;5.420;2023-06-10T21:32:16;6.88;;;3.22;;
79454;SDS011;68900;52.134;5.420;2023-06-10T21:34:58;6.50;;;2.92;;
79454;SDS011;68900;52.134;5.420;2023-06-10T21:37:44;7.13;;;2.88;;
79454;SDS011;68900;52.134;5.420;2023-06-10T21:40:34;5.75;;;2.83;;
79454;SDS011;68900;52.134;5.420;2023-06-10T21:43:15;6.85;;;3.00;;
79454;SDS011;68900;52.134;5.420;2023-06-10T21:51:56;10.82;;;3.53;;
79454;SDS011;68900;52.134;5.420;2023-06-10T21:54:43;6.28;;;3.03;;
79454;SDS011;68900;52.134;5.420;2023-06-10T21:57:10;9.10;;;3.20;;
79454;SDS011;68900;52.134;5.420;2023-06-10T21:59:37;7.47;;;2.92;;
79454;SDS011;68900;52.134;5.420;2023-06-10T22:02:27;6.63;;;3.30;;
79454;SDS011;68900;52.134;5.420;2023-06-10T22:05:08;9.73;;;3.05;;
79454;SDS011;68900;52.134;5.420;2023-06-10T22:16:36;7.00;;;3.00;;
79454;SDS011;68900;52.134;5.420;2023-06-10T22:19:03;6.85;;;3.00;;
79454;SDS011;68900;52.134;5.420;2023-06-10T22:24:36;7.63;;;3.20;;
79454;SDS011;68900;52.134;5.420;2023-06-10T22:27:13;6.18;;;3.35;;
79454;SDS011;68900;52.134;5.420;2023-06-10T22:29:51;7.40;;;3.15;;
79454;SDS011;68900;52.134;5.420;2023-06-10T22:35:49;7.32;;;3.30;;
79454;SDS011;68900;52.134;5.420;2023-06-10T22:38:25;6.15;;;2.90;;
79454;SDS011;68900;52.134;5.420;2023-06-10T22:40:57;6.43;;;3.20;;
79454;SDS011;68900;52.134;5.420;2023-06-10T22:52:22;5.78;;;3.15;;
79454;SDS011;68900;52.134;5.420;2023-06-10T22:54:54;10.45;;;3.10;;
79454;SDS011;68900;52.134;5.420;2023-06-10T22:57:32;7.78;;;3.50;;
79454;SDS011;68900;52.134;5.420;2023-06-10T23:02:52;9.63;;;3.60;;
79454;SDS011;68900;52.134;5.420;2023-06-10T23:05:41;7.90;;;3.22;;
79454;SDS011;68900;52.134;5.420;2023-06-10T23:08:06;8.45;;;3.60;;
79454;SDS011;68900;52.134;5.420;2023-06-10T23:10:48;7.18;;;3.47;;
79454;SDS011;68900;52.134;5.420;2023-06-10T23:13:20;7.60;;;3.53;;
79454;SDS011;68900;52.134;5.420;2023-06-10T23:16:02;6.82;;;3.70;;
79454;SDS011;68900;52.134;5.420;2023-06-10T23:18:37;8.38;;;3.53;;
79454;SDS011;68900;52.134;5.420;2023-06-10T23:21:17;9.02;;;3.63;;
79454;SDS011;68900;52.134;5.420;2023-06-10T23:23:54;5.88;;;3.35;;
79454;SDS011;68900;52.134;5.420;2023-06-10T23:26:41;8.15;;;4.00;;
79454;SDS011;68900;52.134;5.420;2023-06-10T23:29:14;7.43;;;3.38;;
79454;SDS011;68900;52.134;5.420;2023-06-10T23:31:49;8.23;;;3.75;;
79454;SDS011;68900;52.134;5.420;2023-06-10T23:34:21;5.50;;;3.20;;
79454;SDS011;68900;52.134;5.420;2023-06-10T23:42:07;11.23;;;3.53;;
79454;SDS011;68900;52.134;5.420;2023-06-10T23:44:52;8.00;;;3.67;;
79454;SDS011;68900;52.134;5.420;2023-06-10T23:47:34;6.68;;;3.30;;
79454;SDS011;68900;52.134;5.420;2023-06-10T23:50:03;8.80;;;3.63;;
79454;SDS011;68900;52.134;5.420;2023-06-10T23:52:48;7.15;;;3.53;;
79454;SDS011;68900;52.134;5.420;2023-06-10T23:55:31;8.27;;;3.60;;
79454;SDS011;68900;52.134;5.420;2023-06-10T23:58:16;6.60;;;3.67;;
